createdAt,value
2022-08-25T00:00:06.570Z,598.53
2022-08-25T00:00:51.537Z,598.53
2022-08-25T00:01:36.386Z,598.53
2022-08-25T00:02:21.486Z,598.53
2022-08-25T00:03:06.611Z,598.53
2022-08-25T00:03:51.636Z,598.53
2022-08-25T00:04:37.198Z,598.53
2022-08-25T00:05:21.828Z,598.53
2022-08-25T00:06:10.153Z,598.53
2022-08-25T00:06:51.855Z,598.53
2022-08-25T00:07:37.346Z,598.53
2022-08-25T00:08:24.281Z,598.53
2022-08-25T00:09:06.925Z,598.53
2022-08-25T00:09:54.649Z,598.53
2022-08-25T00:10:37.241Z,598.53
2022-08-25T00:11:22.126Z,598.53
2022-08-25T00:12:07.050Z,598.53
2022-08-25T00:12:52.103Z,598.53
2022-08-25T00:13:37.262Z,598.53
2022-08-25T00:14:22.336Z,598.53
2022-08-25T00:15:07.093Z,598.53
2022-08-25T00:15:52.463Z,598.53
2022-08-25T00:16:38.005Z,598.53
2022-08-25T00:17:22.594Z,598.53
2022-08-25T00:18:19.545Z,598.53
2022-08-25T00:18:52.971Z,598.53
2022-08-25T00:19:37.818Z,598.53
2022-08-25T00:20:22.688Z,598.53
2022-08-25T00:21:07.740Z,598.53
2022-08-25T00:21:52.578Z,598.53
2022-08-25T00:22:37.939Z,598.53
2022-08-25T00:23:23.051Z,598.53
2022-08-25T00:24:08.052Z,598.53
2022-08-25T00:24:53.111Z,598.53
2022-08-25T00:25:38.370Z,598.53
2022-08-25T00:26:23.636Z,598.53
2022-08-25T00:27:08.388Z,598.53
2022-08-25T00:27:53.433Z,598.53
2022-08-25T00:28:39.006Z,598.53
2022-08-25T00:29:23.757Z,598.53
2022-08-25T00:30:08.217Z,598.53
2022-08-25T00:30:53.106Z,598.53
2022-08-25T00:31:38.997Z,598.53
2022-08-25T00:32:28.224Z,598.53
2022-08-25T00:33:08.425Z,598.53
2022-08-25T00:33:53.273Z,598.53
2022-08-25T00:34:38.657Z,598.53
2022-08-25T00:35:23.935Z,598.53
2022-08-25T00:36:08.498Z,598.53
2022-08-25T00:36:53.700Z,598.53
2022-08-25T00:37:38.895Z,598.53
2022-08-25T00:38:23.998Z,598.53
2022-08-25T00:39:08.770Z,598.53
2022-08-25T00:39:54.224Z,598.53
2022-08-25T00:40:38.887Z,598.53
2022-08-25T00:41:23.839Z,582.43
2022-08-25T00:42:11.747Z,565.22
2022-08-25T00:42:53.847Z,572.87
2022-08-25T00:43:39.028Z,572.87
2022-08-25T00:44:31.235Z,598.69
2022-08-25T00:45:09.837Z,593.91
2022-08-25T00:45:54.213Z,610.17
2022-08-25T00:46:38.835Z,618.78
2022-08-25T00:47:24.298Z,605.39
2022-08-25T00:48:08.885Z,586.26
2022-08-25T00:48:53.885Z,597.74
2022-08-25T00:49:38.975Z,598.46
2022-08-25T00:50:24.105Z,589.54
2022-08-25T00:51:09.269Z,606.60
2022-08-25T00:51:54.323Z,602.81
2022-08-25T00:52:39.482Z,599.97
2022-08-25T00:53:24.843Z,610.39
2022-08-25T00:54:09.691Z,611.34
2022-08-25T00:54:54.552Z,602.81
2022-08-25T00:55:39.601Z,600.92
2022-08-25T00:56:24.894Z,610.39
2022-08-25T00:57:09.720Z,592.39
2022-08-25T00:57:54.977Z,589.54
2022-08-25T00:58:39.917Z,615.13
2022-08-25T00:59:24.781Z,594.28
2022-08-25T01:00:09.843Z,601.86
2022-08-25T01:00:55.301Z,582.91
2022-08-25T01:01:40.106Z,599.02
2022-08-25T01:02:25.267Z,603.42
2022-08-25T01:03:10.781Z,609.45
2022-08-25T01:03:55.331Z,584.71
2022-08-25T01:04:48.741Z,598.86
2022-08-25T01:05:25.543Z,602.63
2022-08-25T01:06:10.907Z,602.63
2022-08-25T01:06:55.549Z,610.39
2022-08-25T01:07:40.512Z,603.57
2022-08-25T01:08:26.051Z,603.57
2022-08-25T01:09:10.823Z,595.08
2022-08-25T01:09:55.775Z,598.86
2022-08-25T01:10:40.936Z,606.40
2022-08-25T01:11:25.990Z,580.00
2022-08-25T01:12:10.846Z,585.65
2022-08-25T01:12:55.907Z,576.22
2022-08-25T01:13:40.858Z,590.37
2022-08-25T01:14:26.445Z,590.37
2022-08-25T01:15:10.739Z,599.72
2022-08-25T01:15:55.962Z,593.20
2022-08-25T01:16:40.975Z,600.74
2022-08-25T01:17:26.245Z,590.37
2022-08-25T01:18:11.706Z,612.06
2022-08-25T01:18:56.172Z,586.27
2022-08-25T01:19:41.531Z,595.65
2022-08-25T01:20:29.534Z,589.08
2022-08-25T01:21:11.214Z,596.18
2022-08-25T01:21:56.580Z,582.91
2022-08-25T01:22:41.538Z,603.48
2022-08-25T01:23:26.482Z,601.56
2022-08-25T01:24:11.450Z,594.87
2022-08-25T01:24:56.493Z,606.40
2022-08-25T01:25:41.563Z,614.55
2022-08-25T01:26:30.249Z,610.71
2022-08-25T01:27:11.893Z,603.02
2022-08-25T01:27:56.926Z,603.02
2022-08-25T01:28:41.979Z,608.16
2022-08-25T01:29:26.838Z,601.86
2022-08-25T01:30:11.886Z,589.85
2022-08-25T01:30:56.974Z,617.82
2022-08-25T01:31:41.901Z,609.29
2022-08-25T01:32:27.479Z,603.49
2022-08-25T01:33:12.364Z,604.46
2022-08-25T01:33:57.271Z,593.82
2022-08-25T01:34:42.121Z,591.88
2022-08-25T01:35:27.286Z,595.82
2022-08-25T01:36:12.339Z,595.75
2022-08-25T01:36:57.805Z,595.75
2022-08-25T01:37:42.480Z,607.35
2022-08-25T01:38:27.636Z,598.62
2022-08-25T01:39:12.569Z,610.26
2022-08-25T01:39:57.658Z,584.15
2022-08-25T01:40:43.025Z,596.30
2022-08-25T01:41:28.046Z,592.00
2022-08-25T01:42:12.793Z,618.78
2022-08-25T01:42:57.952Z,604.43
2022-08-25T01:43:42.909Z,603.48
2022-08-25T01:44:28.072Z,591.04
2022-08-25T01:45:13.117Z,592.96
2022-08-25T01:45:58.019Z,599.65
2022-08-25T01:46:43.335Z,611.13
2022-08-25T01:47:28.391Z,605.39
2022-08-25T01:48:13.353Z,614.95
2022-08-25T01:48:58.817Z,614.00
2022-08-25T01:49:43.269Z,614.95
2022-08-25T01:50:28.528Z,611.13
2022-08-25T01:51:13.065Z,606.34
2022-08-25T01:51:58.433Z,621.65
2022-08-25T01:52:43.796Z,614.00
2022-08-25T01:53:28.869Z,621.65
2022-08-25T01:54:14.271Z,607.84
2022-08-25T01:54:58.750Z,614.95
2022-08-25T01:55:43.820Z,601.86
2022-08-25T01:56:28.681Z,599.97
2022-08-25T01:57:13.616Z,611.34
2022-08-25T01:57:59.082Z,613.24
2022-08-25T01:58:44.030Z,618.92
2022-08-25T01:59:28.887Z,613.24
2022-08-25T02:00:13.873Z,617.03
2022-08-25T02:00:58.858Z,617.03
2022-08-25T02:01:44.219Z,612.29
2022-08-25T02:02:29.044Z,594.28
2022-08-25T02:03:17.471Z,599.02
2022-08-25T02:03:59.650Z,580.06
2022-08-25T02:04:44.698Z,588.59
2022-08-25T02:05:29.641Z,595.23
2022-08-25T02:06:14.801Z,599.02
2022-08-25T02:06:59.550Z,604.71
2022-08-25T02:07:44.616Z,604.71
2022-08-25T02:08:32.283Z,590.37
2022-08-25T02:09:14.933Z,579.05
2022-08-25T02:10:03.267Z,575.28
2022-08-25T02:10:44.840Z,595.08
2022-08-25T02:11:29.990Z,587.54
2022-08-25T02:12:14.952Z,572.45
2022-08-25T02:13:00.014Z,570.56
2022-08-25T02:13:45.057Z,591.31
2022-08-25T02:14:30.298Z,579.05
2022-08-25T02:15:15.092Z,586.60
2022-08-25T02:16:00.556Z,575.01
2022-08-25T02:16:45.549Z,586.27
2022-08-25T02:17:30.240Z,588.14
2022-08-25T02:18:15.215Z,591.31
2022-08-25T02:19:00.455Z,572.20
2022-08-25T02:19:45.509Z,581.58
2022-08-25T02:20:30.685Z,585.33
2022-08-25T02:21:15.546Z,587.20
2022-08-25T02:22:00.696Z,593.77
2022-08-25T02:22:53.034Z,585.70
2022-08-25T02:23:30.818Z,570.32
2022-08-25T02:24:15.746Z,579.70
2022-08-25T02:25:00.915Z,585.65
2022-08-25T02:25:46.167Z,578.17
2022-08-25T02:26:31.030Z,561.11
2022-08-25T02:27:16.177Z,565.85
2022-08-25T02:28:01.417Z,558.26
2022-08-25T02:28:46.186Z,566.18
2022-08-25T02:29:31.151Z,572.87
2022-08-25T02:30:16.567Z,555.66
2022-08-25T02:31:01.740Z,559.81
2022-08-25T02:31:46.526Z,578.06
2022-08-25T02:32:31.420Z,576.14
2022-08-25T02:33:16.355Z,558.85
2022-08-25T02:34:01.481Z,562.69
2022-08-25T02:34:46.436Z,563.65
2022-08-25T02:35:31.610Z,560.77
2022-08-25T02:36:16.513Z,562.69
2022-08-25T02:37:01.602Z,576.36
2022-08-25T02:37:46.678Z,560.94
2022-08-25T02:38:31.408Z,566.72
2022-08-25T02:39:16.588Z,551.30
2022-08-25T02:40:01.669Z,563.83
2022-08-25T02:40:46.676Z,547.44
2022-08-25T02:41:32.041Z,555.15
2022-08-25T02:42:16.699Z,533.95
2022-08-25T02:43:01.953Z,532.02
2022-08-25T02:43:46.905Z,530.05
2022-08-25T02:44:32.382Z,530.05
2022-08-25T02:45:17.221Z,519.40
2022-08-25T02:46:02.418Z,526.04
2022-08-25T02:46:47.139Z,540.26
2022-08-25T02:47:32.066Z,544.05
2022-08-25T02:48:17.247Z,557.32
2022-08-25T02:49:02.506Z,546.89
2022-08-25T02:49:47.456Z,543.10
2022-08-25T02:50:32.519Z,555.47
2022-08-25T02:51:17.369Z,544.16
2022-08-25T02:52:02.698Z,568.68
2022-08-25T02:52:47.578Z,563.02
2022-08-25T02:53:33.050Z,547.46
2022-08-25T02:54:17.598Z,558.30
2022-08-25T02:55:02.635Z,559.21
2022-08-25T02:55:47.712Z,563.95
2022-08-25T02:56:32.465Z,551.63
2022-08-25T02:57:17.621Z,554.53
2022-08-25T02:58:02.599Z,554.53
2022-08-25T02:58:47.735Z,548.87
2022-08-25T02:59:33.446Z,554.53
2022-08-25T03:00:18.106Z,557.36
2022-08-25T03:01:03.292Z,554.53
2022-08-25T03:01:48.422Z,552.65
2022-08-25T03:02:33.243Z,547.81
2022-08-25T03:03:18.430Z,553.44
2022-08-25T03:04:03.224Z,552.50
2022-08-25T03:04:48.403Z,553.44
2022-08-25T03:05:33.444Z,568.44
2022-08-25T03:06:18.710Z,555.31
2022-08-25T03:07:03.672Z,548.75
2022-08-25T03:07:48.506Z,544.99
2022-08-25T03:08:33.461Z,552.50
2022-08-25T03:09:18.731Z,557.19
2022-08-25T03:10:04.091Z,545.93
2022-08-25T03:10:48.841Z,567.51
2022-08-25T03:11:34.127Z,547.46
2022-08-25T03:12:19.590Z,555.85
2022-08-25T03:13:04.381Z,550.26
2022-08-25T03:13:49.164Z,553.99
2022-08-25T03:14:34.341Z,544.66
2022-08-25T03:15:19.306Z,546.87
2022-08-25T03:16:04.350Z,550.62
2022-08-25T03:16:49.201Z,569.38
2022-08-25T03:17:34.254Z,543.73
2022-08-25T03:18:19.612Z,551.56
2022-08-25T03:19:04.481Z,560.00
2022-08-25T03:19:49.514Z,546.53
2022-08-25T03:20:34.382Z,552.12
2022-08-25T03:21:19.627Z,546.53
2022-08-25T03:22:49.771Z,521.54
2022-08-25T03:23:34.918Z,523.42
2022-08-25T03:24:20.212Z,520.60
2022-08-25T03:25:04.919Z,532.84
2022-08-25T03:25:49.966Z,555.47
2022-08-25T03:26:35.024Z,552.65
2022-08-25T03:27:20.008Z,554.47
2022-08-25T03:28:05.307Z,562.06
2022-08-25T03:28:50.090Z,564.90
2022-08-25T03:29:35.044Z,556.61
2022-08-25T03:30:19.929Z,556.61
2022-08-25T03:31:05.105Z,537.49
2022-08-25T03:31:50.358Z,534.62
2022-08-25T03:32:35.381Z,537.73
2022-08-25T03:33:20.531Z,528.13
2022-08-25T03:34:05.693Z,545.14
2022-08-25T03:34:50.649Z,532.70
2022-08-25T03:35:35.622Z,533.62
2022-08-25T03:36:20.779Z,545.94
2022-08-25T03:37:05.707Z,535.67
2022-08-25T03:37:50.863Z,539.37
2022-08-25T03:38:35.609Z,535.61
2022-08-25T03:39:21.190Z,534.68
2022-08-25T03:40:05.778Z,544.06
2022-08-25T03:40:51.195Z,538.43
2022-08-25T03:41:35.938Z,554.37
2022-08-25T03:42:21.541Z,552.50
2022-08-25T03:43:06.259Z,539.37
2022-08-25T03:43:51.006Z,532.80
2022-08-25T03:44:36.266Z,526.23
2022-08-25T03:45:21.491Z,529.99
2022-08-25T03:46:06.318Z,540.30
2022-08-25T03:46:51.339Z,537.49
2022-08-25T03:47:36.670Z,555.31
2022-08-25T03:48:21.764Z,567.51
2022-08-25T03:49:06.862Z,574.07
2022-08-25T03:49:51.561Z,546.53
2022-08-25T03:50:36.521Z,570.78
2022-08-25T03:51:21.881Z,551.19
2022-08-25T03:52:06.840Z,557.72
2022-08-25T03:52:51.690Z,567.98
2022-08-25T03:53:36.847Z,560.52
2022-08-25T03:54:22.104Z,553.06
2022-08-25T03:55:06.862Z,552.12
2022-08-25T03:55:51.867Z,571.71
2022-08-25T03:56:37.477Z,552.12
2022-08-25T03:57:22.227Z,547.46
2022-08-25T03:58:07.047Z,552.12
2022-08-25T03:58:52.142Z,564.25
2022-08-25T03:59:37.192Z,556.79
2022-08-25T04:00:22.352Z,560.52
2022-08-25T04:01:07.274Z,549.33
2022-08-25T04:01:54.992Z,561.45
2022-08-25T04:02:37.297Z,560.52
2022-08-25T04:03:22.685Z,559.59
2022-08-25T04:04:07.563Z,563.32
2022-08-25T04:04:52.690Z,556.15
2022-08-25T04:05:37.547Z,565.42
2022-08-25T04:06:22.701Z,550.26
2022-08-25T04:07:07.748Z,562.38
2022-08-25T04:07:52.733Z,548.75
2022-08-25T04:08:37.657Z,554.37
2022-08-25T04:09:23.030Z,569.38
2022-08-25T04:10:07.815Z,550.76
2022-08-25T04:10:52.739Z,543.21
2022-08-25T04:11:37.990Z,560.19
2022-08-25T04:12:23.356Z,567.74
2022-08-25T04:13:07.911Z,568.69
2022-08-25T04:13:53.061Z,550.68
2022-08-25T04:14:37.721Z,541.31
2022-08-25T04:15:23.581Z,556.61
2022-08-25T04:16:08.364Z,555.66
2022-08-25T04:16:53.379Z,539.40
2022-08-25T04:17:38.347Z,536.53
2022-08-25T04:18:24.449Z,538.69
2022-08-25T04:19:08.664Z,539.65
2022-08-25T04:19:53.756Z,532.93
2022-08-25T04:20:41.293Z,544.45
2022-08-25T04:21:23.938Z,549.25
2022-08-25T04:22:08.881Z,541.31
2022-08-25T04:22:54.278Z,540.26
2022-08-25T04:23:38.897Z,551.63
2022-08-25T04:24:24.406Z,546.99
2022-08-25T04:25:09.126Z,540.39
2022-08-25T04:25:54.087Z,551.56
2022-08-25T04:26:39.224Z,554.37
2022-08-25T04:27:24.189Z,541.24
2022-08-25T04:28:09.135Z,551.56
2022-08-25T04:28:54.191Z,545.93
2022-08-25T04:29:39.250Z,561.88
2022-08-25T04:30:24.717Z,553.44
2022-08-25T04:31:09.672Z,544.06
2022-08-25T04:31:54.582Z,537.49
2022-08-25T04:32:39.678Z,545.93
2022-08-25T04:33:24.840Z,542.18
2022-08-25T04:34:14.346Z,548.75
2022-08-25T04:34:54.844Z,546.87
2022-08-25T04:35:40.123Z,557.19
2022-08-25T04:36:25.276Z,565.63
2022-08-25T04:37:09.910Z,552.50
2022-08-25T04:37:55.020Z,552.50
2022-08-25T04:38:40.643Z,547.81
2022-08-25T04:39:25.087Z,551.56
2022-08-25T04:40:10.528Z,544.06
2022-08-25T04:40:55.499Z,546.87
2022-08-25T04:41:40.456Z,553.99
2022-08-25T04:42:25.406Z,556.79
2022-08-25T04:43:10.770Z,566.11
2022-08-25T04:43:55.524Z,556.79
2022-08-25T04:44:40.486Z,560.52
2022-08-25T04:45:25.881Z,553.99
2022-08-25T04:46:10.632Z,544.66
2022-08-25T04:46:55.439Z,542.80
2022-08-25T04:47:40.702Z,553.99
2022-08-25T04:48:25.968Z,558.65
2022-08-25T04:49:10.715Z,558.00
2022-08-25T04:49:55.668Z,543.17
2022-08-25T04:50:40.825Z,538.54
2022-08-25T04:51:25.880Z,550.59
2022-08-25T04:52:14.406Z,551.52
2022-08-25T04:52:55.992Z,554.30
2022-08-25T04:53:40.949Z,560.52
2022-08-25T04:54:26.008Z,548.74
2022-08-25T04:55:11.509Z,547.81
2022-08-25T04:55:58.580Z,550.59
2022-08-25T04:56:41.251Z,547.81
2022-08-25T04:57:26.437Z,558.00
2022-08-25T04:58:16.597Z,536.69
2022-08-25T04:58:56.554Z,544.10
2022-08-25T04:59:41.502Z,541.32
2022-08-25T05:00:26.971Z,535.76
2022-08-25T05:01:11.804Z,547.81
2022-08-25T05:01:56.997Z,534.83
2022-08-25T05:02:41.622Z,545.03
2022-08-25T05:03:26.885Z,542.25
2022-08-25T05:04:27.641Z,546.88
2022-08-25T05:04:56.865Z,557.08
2022-08-25T05:05:42.038Z,542.80
2022-08-25T05:06:27.215Z,514.82
2022-08-25T05:07:12.031Z,540.30
2022-08-25T05:07:57.226Z,545.93
2022-08-25T05:08:42.178Z,535.61
2022-08-25T05:09:27.235Z,544.16
2022-08-25T05:10:12.315Z,515.87
2022-08-25T05:10:57.587Z,514.92
2022-08-25T05:11:42.619Z,513.72
2022-08-25T05:12:27.560Z,514.66
2022-08-25T05:13:12.726Z,517.51
2022-08-25T05:13:57.572Z,518.46
2022-08-25T05:14:42.942Z,522.18
2022-08-25T05:15:27.791Z,521.23
2022-08-25T05:16:12.795Z,526.96
2022-08-25T05:16:57.812Z,528.88
2022-08-25T05:17:43.264Z,520.35
2022-08-25T05:18:27.922Z,518.46
2022-08-25T05:19:13.273Z,520.58
2022-08-25T05:19:57.824Z,511.22
2022-08-25T05:20:42.922Z,510.16
2022-08-25T05:21:31.625Z,509.22
2022-08-25T05:22:13.806Z,508.29
2022-08-25T05:22:58.351Z,513.89
2022-08-25T05:23:43.512Z,513.89
2022-08-25T05:24:28.470Z,556.79
2022-08-25T05:25:13.621Z,571.71
2022-08-25T05:26:02.692Z,567.98
2022-08-25T05:26:43.843Z,576.37
2022-08-25T05:27:28.554Z,556.79
2022-08-25T05:28:13.953Z,579.17
2022-08-25T05:28:58.706Z,570.98
2022-08-25T05:29:43.571Z,572.83
2022-08-25T05:30:28.622Z,575.62
2022-08-25T05:31:13.958Z,568.20
2022-08-25T05:31:58.718Z,566.35
2022-08-25T05:32:44.499Z,575.62
2022-08-25T05:33:30.604Z,571.91
2022-08-25T05:34:13.888Z,570.98
2022-08-25T05:34:58.849Z,558.93
2022-08-25T05:35:44.107Z,561.71
2022-08-25T05:36:29.073Z,576.54
2022-08-25T05:37:14.701Z,567.27
2022-08-25T05:37:59.423Z,567.27
2022-08-25T05:38:44.450Z,577.47
2022-08-25T05:39:29.499Z,559.86
2022-08-25T05:40:14.839Z,559.86
2022-08-25T05:40:59.532Z,566.35
2022-08-25T05:41:44.669Z,565.42
2022-08-25T05:42:29.522Z,556.15
2022-08-25T05:43:14.470Z,575.62
2022-08-25T05:43:59.841Z,560.53
2022-08-25T05:44:45.090Z,567.85
2022-08-25T05:45:29.970Z,557.79
2022-08-25T05:46:14.945Z,573.33
2022-08-25T05:46:59.957Z,562.36
2022-08-25T05:47:45.114Z,561.45
2022-08-25T05:48:29.984Z,569.68
2022-08-25T05:49:15.041Z,571.50
2022-08-25T05:50:00.064Z,561.45
2022-08-25T05:50:45.247Z,553.22
2022-08-25T05:51:30.405Z,556.87
2022-08-25T05:52:18.066Z,554.13
2022-08-25T05:53:00.097Z,561.45
2022-08-25T05:53:45.367Z,562.36
2022-08-25T05:54:30.452Z,567.85
2022-08-25T05:55:15.060Z,565.10
2022-08-25T05:56:00.451Z,564.19
2022-08-25T05:56:45.404Z,577.91
2022-08-25T05:57:30.538Z,555.96
2022-08-25T05:58:15.395Z,567.85
2022-08-25T05:59:00.670Z,558.70
2022-08-25T05:59:45.718Z,561.45
2022-08-25T06:00:30.699Z,564.19
2022-08-25T06:01:15.877Z,549.56
2022-08-25T06:02:00.792Z,560.53
2022-08-25T06:02:45.423Z,551.39
2022-08-25T06:03:30.498Z,557.79
2022-08-25T06:04:15.842Z,557.79
2022-08-25T06:05:01.004Z,564.19
2022-08-25T06:05:46.233Z,564.19
2022-08-25T06:06:31.025Z,564.19
2022-08-25T06:07:15.768Z,518.47
2022-08-25T06:08:01.158Z,518.47
2022-08-25T06:08:46.391Z,518.47
2022-08-25T06:09:31.131Z,518.47
2022-08-25T06:10:16.400Z,518.47
2022-08-25T06:11:01.249Z,512.07
2022-08-25T06:11:46.099Z,506.58
2022-08-25T06:12:31.470Z,506.58
2022-08-25T06:13:16.420Z,502.39
2022-08-25T06:14:01.573Z,502.39
2022-08-25T06:14:47.041Z,502.39
2022-08-25T06:15:31.790Z,502.39
2022-08-25T06:16:17.297Z,502.39
2022-08-25T06:17:02.103Z,502.39
2022-08-25T06:17:47.268Z,502.39
2022-08-25T06:18:32.394Z,502.39
2022-08-25T06:19:17.380Z,502.39
2022-08-25T06:20:02.234Z,502.39
2022-08-25T06:20:47.369Z,502.39
2022-08-25T06:21:32.550Z,502.39
2022-08-25T06:22:17.554Z,502.39
2022-08-25T06:23:02.587Z,502.39
2022-08-25T06:23:47.822Z,502.39
2022-08-25T06:24:32.680Z,502.39
2022-08-25T06:25:17.828Z,502.39
2022-08-25T06:26:02.586Z,502.39
2022-08-25T06:26:48.191Z,502.39
2022-08-25T06:27:33.223Z,502.39
2022-08-25T06:28:18.059Z,502.39
2022-08-25T06:29:03.025Z,502.39
2022-08-25T06:29:48.284Z,502.39
2022-08-25T06:30:33.363Z,502.39
2022-08-25T06:31:18.022Z,502.39
2022-08-25T06:32:03.752Z,502.39
2022-08-25T06:32:48.314Z,502.39
2022-08-25T06:33:33.259Z,502.39
2022-08-25T06:34:18.430Z,502.39
2022-08-25T06:35:03.272Z,502.39
2022-08-25T06:35:48.624Z,0.00
2022-08-25T06:36:36.052Z,0.00
2022-08-25T06:37:25.088Z,0.00
2022-08-25T06:38:05.891Z,501.00
2022-08-25T06:38:50.480Z,555.45
2022-08-25T06:39:35.557Z,520.06
2022-08-25T06:40:20.438Z,528.23
2022-08-25T06:41:06.139Z,530.95
2022-08-25T06:41:50.839Z,517.33
2022-08-25T06:42:36.171Z,517.33
2022-08-25T06:43:21.031Z,517.33
2022-08-25T06:44:06.609Z,517.33
2022-08-25T06:44:51.660Z,517.33
2022-08-25T06:45:36.519Z,517.33
2022-08-25T06:46:21.725Z,517.33
2022-08-25T06:47:06.779Z,517.33
2022-08-25T06:47:51.684Z,517.33
2022-08-25T06:48:36.935Z,517.33
2022-08-25T06:49:22.096Z,517.33
2022-08-25T06:50:07.003Z,517.33
2022-08-25T06:50:51.588Z,517.33
2022-08-25T06:51:38.601Z,517.33
2022-08-25T06:52:22.085Z,130.13
2022-08-25T06:53:06.868Z,140.64
2022-08-25T06:53:51.921Z,134.35
2022-08-25T06:54:36.899Z,133.65
2022-08-25T06:55:22.086Z,108.05
2022-08-25T06:56:06.988Z,109.77
2022-08-25T06:56:52.217Z,109.77
2022-08-25T06:57:37.285Z,109.77
2022-08-25T06:58:22.668Z,109.77
2022-08-25T06:59:07.763Z,109.77
2022-08-25T06:59:53.604Z,109.77
2022-08-25T07:00:39.374Z,109.77
2022-08-25T07:01:25.908Z,109.77
2022-08-25T07:02:09.956Z,109.77
2022-08-25T07:02:52.708Z,109.77
2022-08-25T07:10:53.867Z,354.32
2022-08-25T07:11:38.958Z,349.52
2022-08-25T07:12:24.302Z,349.52
2022-08-25T07:23:27.208Z,331.86
2022-08-25T07:24:11.820Z,197.43
2022-08-25T07:24:58.592Z,353.86
2022-08-25T07:25:43.643Z,380.07
2022-08-25T07:26:37.396Z,199.23
2022-08-25T07:27:13.653Z,199.23
2022-08-25T07:27:59.322Z,199.23
2022-08-25T07:28:47.397Z,199.23
2022-08-25T07:29:32.579Z,199.23
2022-08-25T07:30:14.082Z,505.92
2022-08-25T07:30:58.868Z,504.01
2022-08-25T07:31:44.119Z,508.92
2022-08-25T07:32:29.216Z,508.92
2022-08-25T07:33:13.984Z,525.28
2022-08-25T07:33:58.852Z,526.24
2022-08-25T07:34:44.193Z,530.10
2022-08-25T07:56:33.208Z,0.00
2022-08-25T07:57:53.968Z,347.17
2022-08-25T07:58:34.781Z,312.16
2022-08-25T07:59:20.225Z,312.16
2022-08-25T08:00:05.526Z,312.16
2022-08-25T08:00:50.798Z,96.44
2022-08-25T08:01:35.562Z,96.44
2022-08-25T08:02:20.889Z,96.44
2022-08-25T08:03:05.956Z,96.44
2022-08-25T08:03:51.544Z,96.44
2022-08-25T08:04:35.517Z,96.44
2022-08-25T08:05:20.881Z,96.44
2022-08-25T08:06:05.938Z,96.44
2022-08-25T08:06:51.197Z,96.44
2022-08-25T08:11:04.141Z,362.97
2022-08-25T08:11:34.232Z,362.97
2022-08-25T08:12:19.935Z,362.97
2022-08-25T08:13:07.015Z,75.04
2022-08-25T08:13:50.807Z,125.23
2022-08-25T08:14:34.872Z,125.23
2022-08-25T08:15:22.078Z,125.23
2022-08-25T08:16:05.747Z,125.23
2022-08-25T08:16:50.266Z,125.23
2022-08-25T08:17:35.199Z,125.23
2022-08-25T08:18:20.458Z,125.23
2022-08-25T08:19:04.960Z,125.23
2022-08-25T08:19:50.203Z,125.23
2022-08-25T08:20:41.142Z,125.23
2022-08-25T08:21:20.276Z,125.23
2022-08-25T08:22:05.636Z,125.23
2022-08-25T08:22:50.489Z,125.23
2022-08-25T08:23:35.756Z,125.23
2022-08-25T08:24:40.757Z,125.23
2022-08-25T08:25:05.663Z,125.23
2022-08-25T08:25:50.717Z,125.23
2022-08-25T08:26:55.156Z,125.23
2022-08-25T08:27:20.977Z,125.23
2022-08-25T08:28:07.258Z,125.23
2022-08-25T08:28:52.107Z,125.23
2022-08-25T08:29:36.009Z,125.23
2022-08-25T08:30:21.468Z,125.23
2022-08-25T08:31:05.823Z,125.23
2022-08-25T08:31:51.127Z,125.23
2022-08-25T08:33:21.178Z,125.23
2022-08-25T08:34:06.338Z,125.23
2022-08-25T08:34:51.519Z,125.23
2022-08-25T08:35:36.143Z,125.23
2022-08-25T08:36:21.339Z,125.23
2022-08-25T08:37:06.465Z,125.23
2022-08-25T08:37:52.594Z,125.23
2022-08-25T08:38:36.373Z,125.23
2022-08-25T08:39:21.421Z,125.23
2022-08-25T08:40:06.440Z,125.23
2022-08-25T08:40:51.743Z,125.23
2022-08-25T08:41:48.897Z,53.42
2022-08-25T08:42:22.057Z,53.42
2022-08-25T08:43:07.152Z,53.42
2022-08-25T08:43:51.868Z,53.42
2022-08-25T08:44:36.621Z,146.91
2022-08-25T08:45:22.387Z,146.91
2022-08-25T08:46:07.205Z,146.91
2022-08-25T08:46:52.232Z,146.91
2022-08-25T08:47:37.558Z,146.91
2022-08-25T08:48:22.624Z,146.91
2022-08-25T08:49:07.059Z,146.91
2022-08-25T08:49:52.316Z,146.91
2022-08-25T08:50:37.267Z,146.91
2022-08-25T08:51:23.016Z,146.91
2022-08-25T08:52:07.386Z,146.91
2022-08-25T08:52:52.297Z,146.91
2022-08-25T08:53:37.700Z,146.91
2022-08-25T08:54:23.092Z,146.91
2022-08-25T08:55:07.621Z,146.91
2022-08-25T08:55:53.032Z,146.91
2022-08-25T08:56:38.028Z,146.91
2022-08-25T08:57:22.519Z,146.91
2022-08-25T08:58:07.937Z,146.91
2022-08-25T08:58:53.018Z,146.91
2022-08-25T08:59:38.221Z,146.91
2022-08-25T09:00:23.720Z,146.91
2022-08-25T09:01:08.274Z,146.91
2022-08-25T09:01:54.366Z,146.91
2022-08-25T09:02:50.580Z,146.91
2022-08-25T09:03:23.699Z,146.91
2022-08-25T09:04:08.606Z,146.91
2022-08-25T09:04:53.647Z,146.91
2022-08-25T09:05:42.801Z,146.91
2022-08-25T09:06:23.663Z,146.91
2022-08-25T09:07:08.811Z,146.91
2022-08-25T09:07:54.842Z,542.18
2022-08-25T09:08:38.937Z,542.18
2022-08-25T09:09:23.814Z,542.18
2022-08-25T09:10:08.945Z,542.18
2022-08-25T09:10:54.284Z,542.18
2022-08-25T09:11:39.563Z,542.18
2022-08-25T09:12:24.316Z,542.18
2022-08-25T09:13:12.133Z,542.18
2022-08-25T09:13:54.227Z,542.18
2022-08-25T09:14:39.862Z,542.18
2022-08-25T09:15:24.345Z,542.18
2022-08-25T09:16:08.927Z,542.18
2022-08-25T09:16:54.041Z,512.02
2022-08-25T09:17:39.300Z,512.02
2022-08-25T09:18:24.368Z,512.02
2022-08-25T09:19:09.627Z,512.02
2022-08-25T09:19:54.335Z,512.02
2022-08-25T09:20:39.218Z,512.02
2022-08-25T09:21:24.789Z,512.02
2022-08-25T09:22:33.437Z,512.02
2022-08-25T09:22:54.596Z,512.02
2022-08-25T09:23:39.547Z,512.02
2022-08-25T09:24:25.112Z,512.02
2022-08-25T09:25:09.864Z,512.02
2022-08-25T09:25:54.637Z,512.02
2022-08-25T09:26:39.871Z,512.02
2022-08-25T09:27:24.831Z,512.02
2022-08-25T09:28:10.093Z,512.02
2022-08-25T09:28:55.046Z,512.02
2022-08-25T09:29:40.306Z,512.02
2022-08-25T09:30:25.973Z,512.02
2022-08-25T09:31:10.076Z,512.02
2022-08-25T09:31:55.269Z,512.02
2022-08-25T09:32:40.534Z,512.02
2022-08-25T09:33:25.960Z,512.02
2022-08-25T09:34:10.339Z,512.02
2022-08-25T09:34:55.500Z,512.02
2022-08-25T09:35:40.563Z,512.02
2022-08-25T09:36:25.811Z,512.02
2022-08-25T09:37:10.667Z,512.02
2022-08-25T09:37:55.414Z,512.02
2022-08-25T09:38:40.682Z,512.02
2022-08-25T09:39:26.622Z,512.02
2022-08-25T09:40:11.139Z,512.02
2022-08-25T09:40:55.739Z,512.02
2022-08-25T09:41:41.110Z,512.02
2022-08-25T09:42:26.368Z,512.02
2022-08-25T09:43:11.221Z,512.02
2022-08-25T09:43:56.390Z,512.02
2022-08-25T09:44:41.244Z,512.02
2022-08-25T09:45:26.654Z,512.02
2022-08-25T09:46:11.132Z,512.02
2022-08-25T09:46:56.607Z,512.02
2022-08-25T09:47:41.354Z,512.02
2022-08-25T09:48:26.304Z,512.02
2022-08-25T09:49:11.675Z,512.02
2022-08-25T09:49:56.428Z,512.02
2022-08-25T09:50:46.609Z,512.02
2022-08-25T09:51:26.551Z,512.02
2022-08-25T09:52:12.737Z,512.02
2022-08-25T09:52:56.763Z,512.02
2022-08-25T09:53:41.802Z,512.02
2022-08-25T09:54:37.752Z,512.02
2022-08-25T09:55:13.208Z,512.02
2022-08-25T09:55:59.872Z,512.02
2022-08-25T09:56:42.359Z,512.02
2022-08-25T09:57:28.133Z,512.02
2022-08-25T09:58:11.983Z,512.02
2022-08-25T09:59:00.057Z,512.02
2022-08-25T09:59:42.071Z,512.02
2022-08-25T10:00:27.418Z,512.02
2022-08-25T10:01:12.203Z,512.02
2022-08-25T10:01:57.467Z,512.02
2022-08-25T10:02:42.377Z,512.02
2022-08-25T10:03:27.664Z,512.02
2022-08-25T10:04:20.377Z,512.02
2022-08-25T10:04:57.488Z,512.02
2022-08-25T10:05:43.012Z,512.02
2022-08-25T10:06:27.567Z,512.02